Flight Track Log - Related Links

Times and Time Zones

All times are in EDT time to prevent confusion due to time zone crossing. See the AFL1213 flight status page for this flight to view local times or setup timezone preferences in your user account.

Time Position Orientation Groundspeed Altitude Reporting Facility
EDT Latitude Longitude Course Direction KTS MPH feet Rate Location/Type
Tue 10:13:00 AM 53.8005 49.1311 293° West  Level Estimated
Tue 10:14:00 AM 53.8425 48.9598 293° West  Level Estimated
Tue 10:15:00 AM 53.8842 48.7881 292° West  Level Estimated
Tue 10:16:00 AM 53.9257 48.6161 292° West  Level Estimated
Tue 10:17:00 AM 53.9669 48.4438 292° West  Level Estimated
Tue 10:18:00 AM 54.0079 48.2712 292° West  Level Estimated
Tue 10:19:00 AM 54.0486 48.0981 292° West  Level Estimated
Tue 10:20:00 AM 54.0891 47.9248 292° West  Level Estimated
Tue 10:21:00 AM 54.1293 47.7511 292° West  Level Estimated
Tue 10:22:00 AM 54.1693 47.5771 291° West  Level Estimated
Tue 10:23:00 AM 54.2090 47.4027 291° West  Level Estimated
Tue 10:24:00 AM 54.2485 47.2281 291° West  Level Estimated
Tue 10:25:00 AM 54.2877 47.0530 291° West  Level Estimated
Tue 10:26:00 AM 54.3267 46.8777 291° West  Level Estimated
Tue 10:27:00 AM 54.3654 46.7020 291° West  Level Estimated
Tue 10:28:00 AM 54.4038 46.5260 291° West  Level Estimated
Tue 10:29:00 AM 54.4360 46.3774 290° West  Level Estimated
Tue 10:30:00 AM 54.4681 46.2286 290° West  Level Estimated
Tue 10:31:00 AM 54.4999 46.0795 290° West  Level Estimated
Tue 10:32:00 AM 54.5316 45.9302 290° West  Level Estimated
Tue 10:33:00 AM 54.5630 45.7807 290° West  Level Estimated
Tue 10:34:00 AM 54.5943 45.6310 290° West  Level Estimated
Tue 10:35:00 AM 54.6254 45.4810 290° West  Level Estimated
Tue 10:36:00 AM 54.6563 45.3308 290° West  Level Estimated
Tue 10:37:00 AM 54.6871 45.1804 290° West  Level Estimated
Tue 10:38:00 AM 54.7176 45.0298 289° West  Level Estimated
Tue 10:39:00 AM 54.7480 44.8789 289° West  Level Estimated
Tue 10:40:00 AM 54.7781 44.7278 289° West  Level Estimated
Tue 10:41:00 AM 54.8081 44.5765 289° West  Level Estimated
Tue 10:42:00 AM 54.8379 44.4249 289° West  Level Estimated
Tue 10:43:00 AM 54.8675 44.2731 289° West  Level Estimated
Tue 10:44:00 AM 54.8969 44.1211 289° West  Level Estimated
Tue 10:45:00 AM 54.9262 43.9689 289° West  Level Estimated
Tue 10:46:00 AM 54.9552 43.8165 288° West  Level Estimated
Tue 10:47:00 AM 54.9841 43.6638 288° West  Level Estimated
Tue 10:48:00 AM 55.0127 43.5109 288° West  Level Estimated
Tue 10:49:00 AM 55.0412 43.3578 288° West  Level Estimated
Tue 10:50:00 AM 55.0694 43.2045 288° West  Level Estimated
Tue 10:51:00 AM 55.0975 43.0510 288° West  Level Estimated
Tue 10:52:00 AM 55.1254 42.8972 288° West  Level Estimated
Tue 10:53:00 AM 55.1531 42.7433 288° West  Level Estimated
Tue 10:54:00 AM 55.1806 42.5891 287° West  Level Estimated
Tue 10:55:00 AM 55.2079 42.4347 287° West  Level Estimated
Tue 10:56:00 AM 55.2350 42.2801 287° West  Level Estimated
Tue 10:57:00 AM 55.2619 42.1253 287° West  Level Estimated
Tue 10:58:00 AM 55.2886 41.9703 287° West  Level Estimated
Tue 10:59:00 AM 55.3151 41.8151 287° West  Level Estimated
Tue 11:00:00 AM 55.3414 41.6596 287° West  Level Estimated
Tue 11:01:00 AM 55.3675 41.5040 287° West  Level Estimated
Tue 11:02:00 AM 55.3935 41.3482 286° West  Level Estimated
Tue 11:03:00 AM 55.4192 41.1921 286° West  Level Estimated
Tue 11:04:00 AM 55.4447 41.0359 286° West  Level Estimated
Tue 11:05:00 AM 55.4701 40.8794 286° West  Level Estimated
Tue 11:06:00 AM 55.4952 40.7228 286° West  Level Estimated
Tue 11:07:00 AM 55.5201 40.5659 286° West  Level Estimated
Tue 11:08:00 AM 55.5448 40.4089 286° West  Level Estimated
Tue 11:09:00 AM 55.5694 40.2517 285° West  Level Estimated
Tue 11:10:00 AM 55.5937 40.0942 285° West  Level Estimated
Tue 11:11:00 AM 55.6178 39.9366 285° West  Level Estimated
Tue 11:12:00 AM 55.6417 39.7788 285° West  Level Estimated
Tue 11:13:00 AM 55.6654 39.6207 285° West  Level Estimated
Tue 11:14:00 AM 55.6889 39.4625 285° West  Level Estimated
Tue 11:15:00 AM 55.7123 39.3041 285° West  Level Estimated
Tue 11:16:00 AM 55.7354 39.1455 285° West  Level Estimated
Tue 11:17:00 AM 55.7583 38.9868 284° West  Level Estimated
Tue 11:18:00 AM 55.7837 38.8087 284° West  Level Estimated
Tue 11:19:00 AM 55.8088 38.6304 284° West  Level Estimated
Tue 11:20:00 AM 55.8337 38.4519 284° West  Level Estimated
Tue 11:21:00 AM 55.8583 38.2732 284° West  Level Estimated
Tue 11:22:00 AM 55.8827 38.0942 284° West  Level Estimated
Tue 11:23:00 AM 55.9068 37.9151 284° West  Level Estimated
Tue 11:24:00 AM 55.9307 37.7356 283° West  Level Estimated
Tue 11:25:00 AM 55.9543 37.5560 283° West  Level Estimated
Tue 11:26:00 AM 55.9726 37.4146 283° West  Level Estimated
Tue 11:27:00 AM 55.9726 37.4146 North  Level Estimated
Tue 11:28:00 AM 55.9726 37.4146 North  Level Estimated
Tue 11:29:00 AM 55.9726 37.4146 North  Level Estimated
Tue 11:30:00 AM 55.9726 37.4146 North  Level Estimated
Tue 11:31:00 AM 55.9726 37.4146 North  Level Estimated

Login

Don't have an account? Register now (free) for customized features, flight alerts, and more!